Time;durP1;ratioP1;P1;durP2;ratioP2;P2;SDS_P1;SDS_P2;PMS_P1;PMS_P2;Temp;Humidity;BMP_temperature;BMP_pressure;BME280_temperature;BME280_humidity;BME280_pressure;Samples;Min_cycle;Max_cycle;Signal;HPM_P1;HPM_P2
2023/03/13 00:01:22;;;;;;;12.43;4.00;;;;;;;8.07;89.34;99736.50;4947729;28;20229;-83
2023/03/13 00:03:49;;;;;;;15.27;3.70;;;;;;;8.06;89.49;99737.47;4949241;28;20217;-83
2023/03/13 00:06:16;;;;;;;10.77;3.50;;;;;;;8.04;88.92;99727.94;4945474;28;20217;-83
2023/03/13 00:08:43;;;;;;;12.67;3.40;;;;;;;8.00;88.71;99728.16;4953060;28;20232;-83
2023/03/13 00:11:11;;;;;;;17.50;3.60;;;;;;;7.99;89.38;99726.44;4949110;28;20730;-83
2023/03/13 00:13:38;;;;;;;14.73;3.20;;;;;;;7.97;88.80;99711.59;4944799;28;20209;-83
2023/03/13 00:16:08;;;;;;;18.03;4.23;;;;;;;8.00;88.72;99722.00;4951410;28;20668;-83
2023/03/13 00:18:35;;;;;;;16.57;3.57;;;;;;;8.01;88.36;99711.28;4946681;29;20233;-83
2023/03/13 00:21:03;;;;;;;9.83;3.17;;;;;;;7.99;89.39;99712.34;4946057;28;20236;-83
2023/03/13 00:23:30;;;;;;;14.70;4.03;;;;;;;8.00;89.80;99703.44;4947931;28;20201;-84
2023/03/13 00:25:58;;;;;;;17.27;4.07;;;;;;;7.99;88.51;99697.28;4952626;29;20231;-84
2023/03/13 00:28:24;;;;;;;13.03;4.50;;;;;;;7.97;89.24;99700.97;4950681;28;20229;-84
2023/03/13 00:30:51;;;;;;;18.67;3.87;;;;;;;7.98;89.34;99697.38;4946995;29;20205;-84
2023/03/13 00:33:19;;;;;;;24.03;4.07;;;;;;;8.01;89.23;99690.06;4947691;28;20216;-84
2023/03/13 00:35:45;;;;;;;13.83;3.63;;;;;;;8.04;89.74;99693.47;4944867;29;20205;-83
2023/03/13 00:38:11;;;;;;;13.53;3.60;;;;;;;8.03;88.85;99700.56;4945841;28;20574;-84
2023/03/13 00:40:38;;;;;;;17.40;3.80;;;;;;;8.07;89.21;99690.59;4947630;28;20767;-83
2023/03/13 00:43:04;;;;;;;15.57;4.33;;;;;;;8.04;89.36;99689.00;4955996;28;20215;-83
2023/03/13 00:45:31;;;;;;;20.00;4.00;;;;;;;8.04;89.05;99683.72;4948840;28;20206;-82
2023/03/13 00:47:57;;;;;;;12.77;3.20;;;;;;;8.03;88.97;99668.75;4956375;28;20331;-83
2023/03/13 00:50:25;;;;;;;12.83;4.30;;;;;;;8.04;89.01;99683.72;4944083;28;20205;-83
2023/03/13 00:52:51;;;;;;;14.23;3.40;;;;;;;8.04;89.05;99678.41;4949495;28;20214;-83
2023/03/13 00:55:18;;;;;;;16.87;3.43;;;;;;;8.05;89.02;99672.16;4956772;28;20232;-83
2023/03/13 00:57:44;;;;;;;11.87;3.43;;;;;;;8.05;88.40;99672.16;4937336;28;20233;-83
2023/03/13 01:00:12;;;;;;;16.40;3.20;;;;;;;8.09;88.23;99662.16;4946109;28;20237;-82
2023/03/13 01:02:42;;;;;;;12.43;3.30;;;;;;;8.11;88.57;99663.75;4945325;29;20301;-84
2023/03/13 01:05:09;;;;;;;11.30;3.10;;;;;;;8.14;88.15;99666.19;4947394;29;20617;-84
2023/03/13 01:07:37;;;;;;;13.90;3.37;;;;;;;8.14;87.89;99658.25;4953066;28;20602;-83
2023/03/13 01:10:04;;;;;;;13.50;3.67;;;;;;;8.13;88.70;99656.53;4948619;28;20217;-83
2023/03/13 01:12:31;;;;;;;15.23;3.80;;;;;;;8.15;88.01;99649.34;4945334;28;20217;-83
2023/03/13 01:14:57;;;;;;;15.07;4.30;;;;;;;8.18;87.78;99649.13;4944731;29;20219;-83
2023/03/13 01:17:24;;;;;;;12.83;3.20;;;;;;;8.17;88.33;99646.59;4951543;28;20225;-83
2023/03/13 01:19:50;;;;;;;14.77;3.37;;;;;;;8.20;87.56;99643.72;4952997;28;20826;-83
2023/03/13 01:22:18;;;;;;;15.57;3.77;;;;;;;8.24;88.05;99634.59;4950364;29;20589;-83
2023/03/13 01:24:48;;;;;;;12.83;3.33;;;;;;;8.27;87.55;99640.50;4959699;28;20220;-83
2023/03/13 01:27:15;;;;;;;15.13;3.30;;;;;;;8.27;87.69;99639.66;4955596;28;20785;-83
2023/03/13 01:29:42;;;;;;;13.13;3.83;;;;;;;8.29;86.59;99627.16;4954456;28;20212;-83
2023/03/13 01:32:08;;;;;;;14.80;3.37;;;;;;;8.29;87.42;99630.66;4954164;28;20216;-84
2023/03/13 01:34:35;;;;;;;13.60;3.73;;;;;;;8.33;86.73;99616.25;4951002;28;20226;-83
2023/03/13 01:37:01;;;;;;;14.30;3.73;;;;;;;8.34;86.47;99615.31;4950931;28;20232;-83
2023/03/13 01:39:28;;;;;;;16.63;4.63;;;;;;;8.35;86.55;99608.19;4957878;28;20212;-83
2023/03/13 01:41:56;;;;;;;14.33;3.80;;;;;;;8.35;86.27;99611.69;4953151;28;20599;-84
2023/03/13 01:44:24;;;;;;;13.27;3.27;;;;;;;8.37;86.84;99603.63;4948434;28;20233;-84
2023/03/13 01:46:51;;;;;;;11.27;2.87;;;;;;;8.39;86.52;99600.88;4953493;28;20279;-84
2023/03/13 01:49:21;;;;;;;12.60;3.80;;;;;;;8.39;86.56;99593.75;4956672;28;20651;-84
2023/03/13 01:51:50;;;;;;;10.90;3.03;;;;;;;8.40;86.95;99587.50;4947786;29;20206;-84
2023/03/13 01:54:22;;;;;;;11.50;2.93;;;;;;;8.41;86.42;99591.00;4947956;28;20205;-84
2023/03/13 01:56:54;;;;;;;10.97;3.50;;;;;;;8.44;86.62;99573.03;4946352;28;20236;-85
2023/03/13 01:59:24;;;;;;;15.77;4.33;;;;;;;8.44;86.45;99572.19;4956525;29;20204;-85
2023/03/13 02:01:54;;;;;;;14.83;3.30;;;;;;;8.45;85.87;99558.81;4949649;29;20217;-83
2023/03/13 02:04:23;;;;;;;17.67;3.87;;;;;;;8.45;86.31;99557.97;4944996;29;20205;-83
2023/03/13 02:06:53;;;;;;;13.37;3.73;;;;;;;8.45;86.68;99537.59;4948129;28;20207;-84
2023/03/13 02:09:24;;;;;;;14.67;3.47;;;;;;;8.43;86.42;99534.19;4943447;29;20201;-83
2023/03/13 02:11:56;;;;;;;11.77;3.10;;;;;;;8.41;87.10;99524.66;4952325;29;21296;-84
2023/03/13 02:14:28;;;;;;;11.63;3.03;;;;;;;8.38;87.28;99524.88;4956869;29;20196;-84
2023/03/13 02:16:55;;;;;;;14.57;3.60;;;;;;;8.33;86.98;99518.09;4957344;29;20236;-84
2023/03/13 02:19:30;;;;;;;11.47;4.43;;;;;;;8.29;87.61;99518.38;4957223;29;20217;-85
2023/03/13 02:22:08;;;;;;;10.20;3.43;;;;;;;8.24;87.96;99502.78;4957275;29;20212;-83
2023/03/13 02:24:43;;;;;;;14.60;3.50;;;;;;;8.20;88.40;99496.03;4957946;28;20193;-83
2023/03/13 02:27:12;;;;;;;12.57;4.10;;;;;;;8.16;88.18;99493.72;4957301;29;20230;-83
2023/03/13 02:29:38;;;;;;;10.07;3.30;;;;;;;8.11;89.11;99491.38;4956809;29;20581;-84
2023/03/13 02:32:05;;;;;;;16.77;3.47;;;;;;;8.08;88.95;99483.63;4957173;29;20200;-84
2023/03/13 02:34:35;;;;;;;12.83;3.77;;;;;;;8.04;89.95;99479.53;4957213;29;20859;-84
2023/03/13 02:37:04;;;;;;;15.53;3.70;;;;;;;8.00;90.08;99476.25;4957246;29;20711;-85
2023/03/13 02:39:32;;;;;;;12.77;3.13;;;;;;;7.97;90.28;99471.16;4956923;29;20213;-84
2023/03/13 02:42:01;;;;;;;12.13;3.43;;;;;;;7.96;90.95;99453.56;4957130;29;20228;-84
2023/03/13 02:44:29;;;;;;;16.80;3.67;;;;;;;7.95;90.95;99454.50;4956266;29;20208;-84
2023/03/13 02:46:55;;;;;;;12.43;3.20;;;;;;;7.95;91.72;99440.41;4956340;29;20229;-85
2023/03/13 02:49:25;;;;;;;13.07;2.97;;;;;;;7.94;92.07;99447.50;4955729;29;20220;-85
2023/03/13 02:51:53;;;;;;;10.03;2.93;;;;;;;7.97;92.53;99427.91;4955569;29;20208;-84
2023/03/13 02:54:23;;;;;;;11.67;3.07;;;;;;;8.00;92.51;99422.38;4955953;29;20209;-85
2023/03/13 02:56:53;;;;;;;15.53;3.33;;;;;;;8.02;93.63;99410.72;4956278;29;20209;-84
2023/03/13 02:59:19;;;;;;;12.93;2.77;;;;;;;8.08;93.64;99403.25;4956310;29;20216;-83
2023/03/13 03:01:51;;;;;;;9.87;2.90;;;;;;;8.08;93.94;99393.47;4956100;29;20235;-85
2023/03/13 03:04:18;;;;;;;13.47;3.20;;;;;;;8.10;93.36;99396.03;4956269;29;20660;-85
2023/03/13 03:06:45;;;;;;;12.53;3.03;;;;;;;8.19;93.42;99380.31;4956302;29;20204;-85
2023/03/13 03:09:11;;;;;;;15.37;2.90;;;;;;;8.23;93.62;99379.13;4956735;29;20220;-83
2023/03/13 03:11:38;;;;;;;14.57;3.03;;;;;;;8.30;93.17;99375.03;4956418;29;20208;-83
2023/03/13 03:14:05;;;;;;;13.67;3.50;;;;;;;8.33;92.85;99360.75;4957138;29;20213;-84
2023/03/13 03:16:31;;;;;;;12.00;4.27;;;;;;;8.37;92.30;99350.75;4956345;29;20216;-83
2023/03/13 03:18:59;;;;;;;16.60;3.30;;;;;;;8.41;92.64;99353.06;4956386;29;20625;-85
2023/03/13 03:21:26;;;;;;;9.63;2.67;;;;;;;8.40;91.59;99350.53;4956406;29;20213;-83
2023/03/13 03:23:52;;;;;;;15.50;3.67;;;;;;;8.41;91.94;99338.97;4956150;29;20219;-83
2023/03/13 03:26:19;;;;;;;9.53;3.40;;;;;;;8.38;91.69;99334.72;4956165;29;20584;-84
2023/03/13 03:28:45;;;;;;;12.33;2.60;;;;;;;8.39;91.59;99314.34;4956163;29;20558;-84
2023/03/13 03:31:14;;;;;;;14.37;2.97;;;;;;;8.37;92.07;99310.97;4955945;29;20663;-85
2023/03/13 03:33:41;;;;;;;9.97;2.50;;;;;;;8.33;92.38;99295.28;4955088;29;20215;-84
2023/03/13 03:36:12;;;;;;;14.03;3.17;;;;;;;8.32;92.41;99298.88;4954841;28;20208;-84
2023/03/13 03:38:39;;;;;;;8.53;2.60;;;;;;;8.32;92.24;99292.72;4955377;29;20291;-84
2023/03/13 03:41:06;;;;;;;12.50;3.30;;;;;;;8.31;92.25;99293.66;4955623;29;20279;-83
2023/03/13 03:43:32;;;;;;;12.70;3.87;;;;;;;8.32;92.56;99296.22;4954996;29;20201;-83
2023/03/13 03:45:59;;;;;;;15.20;2.70;;;;;;;8.32;92.73;99274.16;4955492;29;20618;-84
2023/03/13 03:48:25;;;;;;;15.03;2.57;;;;;;;8.32;93.48;99264.41;4955211;29;20229;-85
2023/03/13 03:50:52;;;;;;;13.93;4.30;;;;;;;8.33;92.71;99258.13;4955834;29;20691;-84
2023/03/13 03:53:20;;;;;;;9.03;2.70;;;;;;;8.32;93.67;99253.78;4955850;29;20239;-84
2023/03/13 03:55:47;;;;;;;12.73;3.00;;;;;;;8.34;93.84;99253.66;4955978;28;20220;-82
2023/03/13 03:58:13;;;;;;;12.27;2.80;;;;;;;8.33;93.62;99244.88;4953843;29;20229;-82
2023/03/13 04:00:42;;;;;;;9.33;3.10;;;;;;;8.38;94.32;99241.03;4936856;29;20239;-84
2023/03/13 04:03:09;;;;;;;14.63;2.80;;;;;;;8.35;93.71;99247.41;4936798;29;20216;-84
2023/03/13 04:05:35;;;;;;;12.27;2.80;;;;;;;8.34;94.42;99249.22;4935953;29;20216;-83
2023/03/13 04:08:02;;;;;;;13.60;2.87;;;;;;;8.35;94.88;99252.72;4935697;29;20236;-83
2023/03/13 04:10:29;;;;;;;18.17;3.30;;;;;;;8.34;94.41;99240.41;4935442;29;20209;-83
2023/03/13 04:12:56;;;;;;;12.00;2.97;;;;;;;8.37;94.97;99236.69;4935557;29;20210;-84
2023/03/13 04:15:22;;;;;;;14.63;3.10;;;;;;;8.41;94.56;99233.69;4934930;29;20213;-84
2023/03/13 04:17:49;;;;;;;17.93;2.87;;;;;;;8.41;93.97;99228.38;4935201;29;20233;-83
2023/03/13 04:20:16;;;;;;;9.67;3.10;;;;;;;8.40;94.56;99236.44;4935101;29;20218;-82
2023/03/13 04:22:43;;;;;;;16.73;3.57;;;;;;;8.41;93.99;99238.13;4935774;29;20265;-83
2023/03/13 04:25:10;;;;;;;12.50;3.03;;;;;;;8.40;94.64;99234.66;4935347;29;20209;-84
2023/03/13 04:27:38;;;;;;;13.27;2.80;;;;;;;8.44;94.21;99236.06;4936016;29;20229;-83
2023/03/13 04:30:06;;;;;;;11.70;3.30;;;;;;;8.48;94.13;99228.72;4935542;29;20209;-82
2023/03/13 04:32:32;;;;;;;12.60;2.37;;;;;;;8.49;94.41;99220.66;4935985;29;20273;-82
2023/03/13 04:34:59;;;;;;;14.47;2.73;;;;;;;8.48;94.99;99212.81;4954760;29;20215;-84
2023/03/13 04:37:25;;;;;;;12.40;3.10;;;;;;;8.47;94.80;99201.34;4954619;29;20590;-85
2023/03/13 04:39:52;;;;;;;11.33;2.57;;;;;;;8.49;95.34;99193.28;4954215;29;20216;-84
2023/03/13 04:42:18;;;;;;;13.40;3.27;;;;;;;8.47;95.41;99181.94;4954467;29;20238;-83
2023/03/13 04:44:46;;;;;;;13.17;2.73;;;;;;;8.47;96.73;99181.94;4954873;29;20209;-82
2023/03/13 04:47:12;;;;;;;14.60;3.10;;;;;;;8.47;97.07;99179.28;4954761;28;20224;-83
2023/03/13 04:49:39;;;;;;;10.13;2.47;;;;;;;8.47;97.22;99161.56;4958888;29;20695;-83
2023/03/13 04:52:06;;;;;;;12.80;3.07;;;;;;;8.45;98.08;99165.28;4958833;29;20215;-83
2023/03/13 04:54:33;;;;;;;12.07;2.30;;;;;;;8.46;98.51;99159.03;4957554;29;20838;-84
2023/03/13 04:56:59;;;;;;;12.87;2.80;;;;;;;8.44;98.96;99152.97;4957914;29;20727;-84
2023/03/13 04:59:26;;;;;;;15.77;3.57;;;;;;;8.39;100.00;99148.06;4957977;29;20213;-81
2023/03/13 05:01:54;;;;;;;10.57;3.03;;;;;;;8.42;100.00;99142.50;4957553;29;20699;-83
2023/03/13 05:04:20;;;;;;;13.13;2.90;;;;;;;8.46;100.00;99151.06;4958737;29;20212;-82
2023/03/13 05:06:47;;;;;;;8.43;2.53;;;;;;;8.52;100.00;99132.00;4958241;29;20211;-83
2023/03/13 05:09:13;;;;;;;7.97;1.80;;;;;;;8.49;100.00;99106.56;4958861;29;20225;-82
2023/03/13 05:11:41;;;;;;;15.67;2.50;;;;;;;8.49;100.00;99103.06;4958976;29;20205;-83
2023/03/13 05:14:08;;;;;;;7.53;2.20;;;;;;;8.53;100.00;99099.22;4959168;29;20209;-84
2023/03/13 05:16:34;;;;;;;8.23;3.13;;;;;;;8.51;100.00;99101.97;4959172;29;20255;-84
2023/03/13 05:19:02;;;;;;;10.23;2.30;;;;;;;8.49;100.00;99105.72;4958936;29;20204;-83
2023/03/13 05:21:29;;;;;;;10.33;2.47;;;;;;;8.51;100.00;99114.41;4959126;29;20221;-84
2023/03/13 05:23:56;;;;;;;11.00;2.40;;;;;;;8.51;100.00;99112.59;4958202;29;20212;-82
2023/03/13 05:26:22;;;;;;;5.13;1.67;;;;;;;8.54;100.00;99100.91;4958571;28;20209;-83
2023/03/13 05:28:49;;;;;;;8.93;2.40;;;;;;;8.56;100.00;99098.97;4958733;29;20333;-84
2023/03/13 05:31:15;;;;;;;7.73;2.13;;;;;;;8.55;100.00;99095.47;4959284;29;20220;-83
2023/03/13 05:33:42;;;;;;;9.63;2.47;;;;;;;8.58;100.00;99074.00;4958244;29;20349;-85
2023/03/13 05:36:11;;;;;;;13.40;3.07;;;;;;;8.60;100.00;99073.84;4957836;29;20221;-85
2023/03/13 05:38:38;;;;;;;7.50;2.10;;;;;;;8.66;100.00;99084.00;4957972;29;20224;-83
2023/03/13 05:41:05;;;;;;;6.07;2.20;;;;;;;8.69;100.00;99078.44;4957783;29;20580;-85
2023/03/13 05:43:31;;;;;;;7.67;2.07;;;;;;;8.71;100.00;99068.53;4958748;29;20225;-83
2023/03/13 05:45:57;;;;;;;8.90;2.57;;;;;;;8.73;100.00;99057.81;4959147;29;20209;-83
2023/03/13 05:48:24;;;;;;;7.00;1.80;;;;;;;8.79;100.00;99062.59;4959700;29;20792;-85
2023/03/13 05:50:50;;;;;;;5.57;2.07;;;;;;;8.82;100.00;99041.13;4952681;29;20205;-84
2023/03/13 05:53:18;;;;;;;6.63;1.67;;;;;;;8.75;100.00;99038.13;4942049;29;20212;-84
2023/03/13 05:55:45;;;;;;;6.97;1.90;;;;;;;8.74;100.00;99030.31;4944751;29;20205;-85
2023/03/13 05:58:11;;;;;;;6.03;1.40;;;;;;;8.79;100.00;99036.91;4959016;28;20224;-85
2023/03/13 06:00:38;;;;;;;8.67;2.17;;;;;;;8.81;100.00;99050.88;4959298;29;20215;-84
2023/03/13 06:03:04;;;;;;;9.77;2.00;;;;;;;8.80;100.00;99038.59;4959500;29;20229;-84
2023/03/13 06:05:31;;;;;;;8.53;2.37;;;;;;;8.78;100.00;99037.88;4939980;29;20216;-84
2023/03/13 06:07:57;;;;;;;5.70;1.60;;;;;;;8.85;100.00;99025.78;4939335;29;20664;-85
2023/03/13 06:10:25;;;;;;;7.13;2.50;;;;;;;8.89;100.00;99029.88;4940146;29;20214;-85
2023/03/13 06:12:56;;;;;;;5.93;2.13;;;;;;;8.92;100.00;99032.28;4941842;29;20583;-84
2023/03/13 06:15:23;;;;;;;6.63;2.33;;;;;;;8.94;100.00;99006.47;4950097;28;20212;-83
2023/03/13 06:17:49;;;;;;;5.57;1.70;;;;;;;9.03;100.00;99024.28;4950479;29;20698;-84
2023/03/13 06:20:16;;;;;;;5.13;1.33;;;;;;;9.05;100.00;99014.38;4955778;28;20217;-85
2023/03/13 06:22:43;;;;;;;5.10;1.53;;;;;;;9.09;100.00;99030.91;4949884;29;20236;-84
2023/03/13 06:25:10;;;;;;;5.37;1.70;;;;;;;9.08;100.00;99039.00;4957830;29;20205;-83
2023/03/13 06:27:38;;;;;;;6.13;1.63;;;;;;;9.07;100.00;99034.66;4953787;28;20684;-84
2023/03/13 06:30:05;;;;;;;4.43;1.33;;;;;;;9.12;100.00;99024.50;4953862;29;20206;-83
2023/03/13 06:32:31;;;;;;;3.00;0.67;;;;;;;9.09;100.00;99009.66;4943521;28;20209;-82
2023/03/13 06:34:57;;;;;;;4.83;1.80;;;;;;;9.13;100.00;99018.22;4943797;28;20217;-84
2023/03/13 06:37:24;;;;;;;4.60;1.70;;;;;;;9.15;100.00;99014.44;4945280;29;20229;-83
2023/03/13 06:39:50;;;;;;;5.00;1.63;;;;;;;9.15;100.00;99009.13;4947888;29;20205;-83
2023/03/13 06:42:17;;;;;;;4.17;1.63;;;;;;;9.16;100.00;98996.69;4949879;28;20225;-82
2023/03/13 06:44:45;;;;;;;4.83;1.33;;;;;;;9.15;100.00;99016.25;4946905;28;20595;-82
2023/03/13 06:47:11;;;;;;;6.33;1.30;;;;;;;9.17;100.00;99024.94;4956895;28;20231;-83
2023/03/13 06:49:38;;;;;;;4.30;1.27;;;;;;;9.16;100.00;99005.50;4957303;28;20679;-83
2023/03/13 06:52:04;;;;;;;3.57;1.40;;;;;;;9.21;100.00;99019.25;4951915;28;20209;-85
2023/03/13 06:54:31;;;;;;;1.83;1.07;;;;;;;9.25;100.00;99011.88;4947119;28;20213;-84
2023/03/13 06:56:57;;;;;;;4.53;1.50;;;;;;;9.30;100.00;99013.19;4950790;29;20761;-83
2023/03/13 06:59:24;;;;;;;4.50;1.40;;;;;;;9.33;100.00;99009.41;4952478;28;20580;-84
2023/03/13 07:01:52;;;;;;;4.70;1.40;;;;;;;9.36;100.00;99020.59;4950760;29;20233;-85
2023/03/13 07:04:18;;;;;;;2.40;1.00;;;;;;;9.37;100.00;99016.16;4954174;29;20205;-83
2023/03/13 07:06:45;;;;;;;3.73;1.20;;;;;;;9.40;100.00;99006.09;4946597;29;20206;-83
2023/03/13 07:09:11;;;;;;;1.93;1.07;;;;;;;9.47;100.00;99006.44;4936822;29;20216;-83
2023/03/13 07:11:38;;;;;;;2.50;1.23;;;;;;;9.57;100.00;98996.69;4954214;28;20224;-83
2023/03/13 07:14:04;;;;;;;1.97;1.33;;;;;;;9.58;100.00;99009.00;4949624;29;20216;-82
2023/03/13 07:16:31;;;;;;;2.97;1.33;;;;;;;9.60;100.00;99001.75;4946939;28;20224;-83
2023/03/13 07:18:59;;;;;;;3.20;1.07;;;;;;;9.63;100.00;99025.41;4948801;29;20232;-83
2023/03/13 07:21:25;;;;;;;4.10;1.10;;;;;;;9.64;100.00;99027.09;4954304;28;20208;-83
2023/03/13 07:23:52;;;;;;;2.93;0.93;;;;;;;9.69;100.00;99024.88;4957822;28;20205;-82
2023/03/13 07:26:19;;;;;;;2.27;1.07;;;;;;;9.74;100.00;99016.50;4945099;29;20209;-84
2023/03/13 07:28:46;;;;;;;4.27;1.40;;;;;;;9.77;100.00;99015.41;4942688;29;20345;-82
2023/03/13 07:31:14;;;;;;;1.63;1.10;;;;;;;9.82;100.00;99008.75;4941058;28;20209;-84
2023/03/13 07:33:44;;;;;;;1.43;0.80;;;;;;;9.87;100.00;99014.47;4949277;28;20216;-82
2023/03/13 07:36:14;;;;;;;2.77;1.00;;;;;;;9.94;100.00;99010.31;4949431;28;20205;-83
2023/03/13 07:38:42;;;;;;;2.37;1.00;;;;;;;9.96;100.00;99010.19;4952445;28;20232;-83
2023/03/13 07:41:11;;;;;;;1.20;0.80;;;;;;;10.00;100.00;99012.47;4948953;28;20206;-82
2023/03/13 07:43:38;;;;;;;2.20;0.83;;;;;;;10.04;100.00;99018.34;4954407;28;20229;-83
2023/03/13 07:46:06;;;;;;;2.07;0.90;;;;;;;10.09;100.00;99016.13;4945813;28;20211;-83
2023/03/13 07:48:34;;;;;;;2.33;0.80;;;;;;;10.10;100.00;99012.50;4948491;28;20672;-82
2023/03/13 07:51:01;;;;;;;1.20;1.00;;;;;;;10.13;100.00;99038.81;4948562;29;20220;-81
2023/03/13 07:53:29;;;;;;;2.60;1.03;;;;;;;10.21;100.00;99030.22;4944895;29;20563;-84
2023/03/13 07:55:58;;;;;;;1.13;0.90;;;;;;;10.24;100.00;99022.78;4947510;29;20215;-85
2023/03/13 07:58:27;;;;;;;0.90;0.70;;;;;;;10.26;100.00;99030.63;4941643;28;20241;-81
2023/03/13 08:00:54;;;;;;;1.20;0.80;;;;;;;10.31;100.00;99031.09;4961881;28;20201;-83
2023/03/13 08:03:21;;;;;;;2.00;1.13;;;;;;;10.32;100.00;99046.94;4942022;29;20282;-83
2023/03/13 08:05:47;;;;;;;3.03;0.90;;;;;;;10.34;100.00;99034.31;4946495;29;20244;-83
2023/03/13 08:08:14;;;;;;;1.77;0.70;;;;;;;10.41;100.00;99032.78;4945072;28;20230;-82
2023/03/13 08:10:44;;;;;;;2.90;0.87;;;;;;;10.43;100.00;99038.81;4947685;28;20209;-82
2023/03/13 08:13:11;;;;;;;0.90;0.73;;;;;;;10.40;100.00;99039.09;4954845;28;20200;-84
2023/03/13 08:15:37;;;;;;;1.57;0.80;;;;;;;10.44;100.00;99040.50;4961143;28;20205;-82
2023/03/13 08:18:04;;;;;;;1.93;0.90;;;;;;;10.44;100.00;99019.22;4953073;29;20237;-83
2023/03/13 08:20:31;;;;;;;1.67;0.87;;;;;;;10.51;100.00;99029.34;4943115;29;20222;-83
2023/03/13 08:22:57;;;;;;;1.03;0.90;;;;;;;10.52;100.00;99031.03;4958175;28;20258;-83
2023/03/13 08:25:24;;;;;;;2.17;0.80;;;;;;;10.52;100.00;99050.50;4939702;29;20206;-82
2023/03/13 08:27:52;;;;;;;3.47;1.20;;;;;;;10.51;100.00;99037.31;4960524;28;20240;-81
2023/03/13 08:30:19;;;;;;;2.07;1.03;;;;;;;10.52;100.00;99062.97;4937787;29;20215;-81
2023/03/13 08:32:45;;;;;;;2.07;0.93;;;;;;;10.51;100.00;99037.31;4942011;29;20205;-82
2023/03/13 08:35:11;;;;;;;1.00;0.90;;;;;;;10.52;100.00;99029.19;4953631;29;20216;-82
2023/03/13 08:37:38;;;;;;;1.23;0.97;;;;;;;10.52;100.00;99034.53;4943009;29;20220;-82
2023/03/13 08:40:09;;;;;;;1.50;1.07;;;;;;;10.58;100.00;99036.63;4954348;29;20212;-83
2023/03/13 08:42:36;;;;;;;1.63;1.10;;;;;;;10.64;100.00;99011.28;4953042;29;20217;-81
2023/03/13 08:45:05;;;;;;;1.50;1.00;;;;;;;10.71;100.00;98993.78;4956904;28;20209;-82
2023/03/13 08:47:32;;;;;;;1.03;0.90;;;;;;;10.79;100.00;99012.56;4953188;28;20597;-82
2023/03/13 08:49:58;;;;;;;2.30;1.13;;;;;;;10.83;100.00;99008.66;4951245;28;20210;-81
2023/03/13 08:52:25;;;;;;;2.13;1.20;;;;;;;10.86;100.00;98988.88;4952677;29;20202;-83
2023/03/13 08:54:51;;;;;;;1.97;1.27;;;;;;;10.99;100.00;99006.28;4947300;28;20313;-80
2023/03/13 08:57:18;;;;;;;2.20;1.03;;;;;;;11.00;100.00;98999.97;4947980;28;20735;-81
2023/03/13 08:59:44;;;;;;;2.43;0.90;;;;;;;10.99;100.00;99010.75;4961519;28;20720;-81
2023/03/13 09:02:18;;;;;;;1.63;0.73;;;;;;;11.05;100.00;99007.53;4951681;28;20230;-82
2023/03/13 09:04:45;;;;;;;1.43;0.80;;;;;;;11.09;100.00;98993.81;4954005;28;20657;-82
2023/03/13 09:07:11;;;;;;;1.83;1.20;;;;;;;11.11;100.00;98994.47;4949964;28;20236;-81
2023/03/13 09:09:38;;;;;;;1.67;0.87;;;;;;;11.18;100.00;98985.94;4952023;28;20217;-81
2023/03/13 09:12:04;;;;;;;2.07;1.20;;;;;;;11.24;100.00;98977.38;4956132;28;20222;-80
2023/03/13 09:14:31;;;;;;;2.00;1.00;;;;;;;11.24;100.00;98985.38;4947522;28;20748;-82
2023/03/13 09:16:58;;;;;;;2.10;1.10;;;;;;;11.27;100.00;98983.28;4946714;28;20216;-81
2023/03/13 09:19:26;;;;;;;1.37;0.80;;;;;;;11.33;100.00;98981.84;4951214;28;20309;-82
2023/03/13 09:21:52;;;;;;;2.33;1.00;;;;;;;11.39;100.00;98986.63;4956356;28;20208;-82
2023/03/13 09:24:19;;;;;;;4.03;1.30;;;;;;;11.39;100.00;98987.47;4947496;28;20231;-81
2023/03/13 09:26:45;;;;;;;2.27;1.10;;;;;;;11.46;100.00;98980.56;4949759;28;20219;-81
2023/03/13 09:29:12;;;;;;;1.60;1.10;;;;;;;11.48;100.00;98981.25;4953711;28;20567;-83
2023/03/13 09:31:40;;;;;;;2.00;0.93;;;;;;;11.50;100.00;98975.78;4946906;28;20206;-81
2023/03/13 09:34:06;;;;;;;1.47;0.80;;;;;;;11.51;100.00;98958.81;4950370;28;20294;-82
2023/03/13 09:36:34;;;;;;;2.20;0.93;;;;;;;11.60;99.52;98965.97;4953240;28;20928;-83
2023/03/13 09:39:01;;;;;;;2.53;1.30;;;;;;;11.65;98.86;98963.69;4954165;28;20241;-82
2023/03/13 09:41:34;;;;;;;2.77;0.90;;;;;;;11.68;98.63;98947.38;4948092;28;20205;-81
2023/03/13 09:44:06;;;;;;;1.10;1.00;;;;;;;11.76;97.94;98954.72;4943100;28;20221;-82
2023/03/13 09:46:39;;;;;;;2.77;0.97;;;;;;;11.79;97.75;98939.25;4949692;28;20671;-81
2023/03/13 09:49:13;;;;;;;2.33;1.27;;;;;;;11.80;97.38;98950.78;4951243;28;20207;-83
2023/03/13 09:51:44;;;;;;;1.57;1.00;;;;;;;11.80;97.25;98948.94;4950957;28;20216;-82
2023/03/13 09:54:23;;;;;;;1.87;1.10;;;;;;;11.83;97.21;98937.97;4949159;28;20204;-82
2023/03/13 09:56:56;;;;;;;2.00;0.83;;;;;;;11.85;96.42;98951.16;4952824;28;20782;-82
2023/03/13 09:59:28;;;;;;;3.10;0.97;;;;;;;11.91;96.47;98955.06;4952660;28;20687;-82
2023/03/13 10:01:58;;;;;;;1.43;0.60;;;;;;;11.99;95.90;98947.19;4954470;28;20219;-81
2023/03/13 10:04:31;;;;;;;2.13;1.00;;;;;;;12.04;95.41;98935.06;4949346;28;20641;-81
2023/03/13 10:06:59;;;;;;;1.50;0.83;;;;;;;12.07;95.31;98941.94;4945729;28;20235;-81
2023/03/13 10:09:29;;;;;;;1.43;0.70;;;;;;;12.06;95.07;98949.09;4951569;28;20211;-81
2023/03/13 10:12:02;;;;;;;1.83;0.93;;;;;;;12.12;95.40;98953.00;4947096;28;20232;-81
2023/03/13 10:14:31;;;;;;;2.00;1.30;;;;;;;12.16;95.05;98954.41;4951226;28;20220;-81
2023/03/13 10:17:05;;;;;;;1.73;1.00;;;;;;;12.18;94.89;98955.91;4956402;28;20244;-82
2023/03/13 10:19:36;;;;;;;2.90;1.13;;;;;;;12.29;94.40;98946.88;4951930;28;20623;-81
2023/03/13 10:22:19;;;;;;;4.20;1.03;;;;;;;12.32;94.32;98948.41;4961421;28;20213;-83
2023/03/13 10:24:52;;;;;;;5.43;1.03;;;;;;;12.35;94.30;98946.28;4956284;28;20208;-82
2023/03/13 10:27:19;;;;;;;2.93;1.00;;;;;;;12.38;94.35;98934.44;4957044;28;20295;-83
2023/03/13 10:29:45;;;;;;;3.10;1.30;;;;;;;12.44;93.58;98940.03;4949353;28;20223;-83
2023/03/13 10:32:14;;;;;;;2.17;1.17;;;;;;;12.44;93.43;98945.38;4949756;28;20563;-83
2023/03/13 10:34:53;;;;;;;2.13;0.93;;;;;;;12.45;93.35;98941.72;4949360;28;20581;-83
2023/03/13 10:37:26;;;;;;;3.07;1.20;;;;;;;12.51;93.39;98946.47;4951500;28;20324;-82
2023/03/13 10:39:53;;;;;;;3.10;1.30;;;;;;;12.56;93.54;98951.31;4956146;28;20203;-83
2023/03/13 10:42:24;;;;;;;2.40;1.20;;;;;;;12.59;93.37;98950.19;4954477;28;20204;-83
2023/03/13 10:44:57;;;;;;;2.07;1.20;;;;;;;12.56;93.83;98954.00;4954639;28;20205;-83
2023/03/13 10:47:24;;;;;;;3.40;1.10;;;;;;;12.58;93.99;98961.88;4953240;28;20284;-83
2023/03/13 10:49:55;;;;;;;2.43;0.90;;;;;;;12.60;94.22;98949.19;4949936;28;20216;-82
2023/03/13 10:52:33;;;;;;;2.07;1.10;;;;;;;12.62;94.56;98952.56;4951164;28;20219;-81
2023/03/13 10:55:00;;;;;;;1.33;1.00;;;;;;;12.63;95.16;98949.75;4949799;28;20204;-82
2023/03/13 10:57:31;;;;;;;1.20;1.10;;;;;;;12.72;95.29;98940.00;4951488;28;20231;-82
2023/03/13 10:59:59;;;;;;;1.90;1.20;;;;;;;12.78;95.92;98931.34;4951350;28;20198;-82
2023/03/13 11:02:31;;;;;;;2.37;1.10;;;;;;;12.80;95.53;98930.22;4951765;28;20309;-82
2023/03/13 11:04:58;;;;;;;3.03;1.30;;;;;;;12.86;96.22;98926.94;4954559;28;20201;-83
2023/03/13 11:07:33;;;;;;;2.40;1.20;;;;;;;12.96;95.49;98926.00;4948893;28;20224;-82
2023/03/13 11:10:01;;;;;;;2.33;1.13;;;;;;;12.99;94.47;98910.50;4953494;28;20671;-82
2023/03/13 11:12:33;;;;;;;3.73;1.07;;;;;;;13.08;94.44;98909.56;4944890;28;20233;-82
2023/03/13 11:15:01;;;;;;;2.50;0.90;;;;;;;13.13;93.40;98915.28;4953271;28;20204;-83
2023/03/13 11:17:34;;;;;;;2.43;1.30;;;;;;;13.24;92.55;98900.03;4950072;28;20224;-84
2023/03/13 11:20:08;;;;;;;2.33;1.20;;;;;;;13.28;92.08;98901.38;4952802;28;20224;-83
2023/03/13 11:22:48;;;;;;;1.17;1.00;;;;;;;13.38;91.64;98875.41;4953092;28;20193;-83
2023/03/13 11:25:20;;;;;;;2.57;1.30;;;;;;;13.48;90.17;98897.50;4945343;28;20212;-83
2023/03/13 11:27:56;;;;;;;1.33;1.13;;;;;;;13.50;89.42;98895.50;4946876;28;20225;-83
2023/03/13 11:30:45;;;;;;;1.40;1.10;;;;;;;13.55;89.42;98887.88;4948663;28;20197;-84
2023/03/13 11:33:21;;;;;;;3.93;1.23;;;;;;;13.64;88.61;98878.88;4952514;28;20197;-82
2023/03/13 11:35:52;;;;;;;2.63;1.03;;;;;;;13.70;87.94;98891.63;4945508;29;20197;-83